Time;durP1;ratioP1;P1;durP2;ratioP2;P2;SDS_P1;SDS_P2;PMS_P1;PMS_P2;Temp;Humidity;BMP_temperature;BMP_pressure;BME280_temperature;BME280_humidity;BME280_pressure;Samples;Min_cycle;Max_cycle;Signal;HPM_P1;HPM_P2
2022/08/29 00:01:00;;;;;;;0.00;0.00;;;15.90;99.90;;;;;;5013805;28;20029;-72
2022/08/29 00:03:27;;;;;;;0.00;0.00;;;15.80;99.90;;;;;;5013914;28;20026;-73
2022/08/29 00:05:52;;;;;;;0.20;0.20;;;15.90;99.90;;;;;;5013662;28;20374;-73
2022/08/29 00:08:19;;;;;;;0.75;0.75;;;15.80;99.90;;;;;;5013481;28;20155;-73
2022/08/29 00:10:45;;;;;;;0.50;0.50;;;15.90;99.90;;;;;;5032280;28;20056;-72
2022/08/29 00:13:13;;;;;;;0.47;0.38;;;15.80;99.90;;;;;;5017089;28;20037;-72
2022/08/29 00:15:40;;;;;;;0.38;0.22;;;15.70;99.90;;;;;;5000693;28;20416;-73
2022/08/29 00:18:07;;;;;;;0.77;0.77;;;15.70;99.90;;;;;;5017282;28;20026;-73
2022/08/29 00:20:34;;;;;;;0.30;0.30;;;15.60;99.90;;;;;;5017015;28;20025;-72
2022/08/29 00:23:03;;;;;;;0.40;0.40;;;15.50;99.90;;;;;;5016830;28;20120;-73
2022/08/29 00:25:30;;;;;;;0.40;0.40;;;15.50;99.90;;;;;;5034464;28;20021;-73
2022/08/29 00:27:56;;;;;;;0.00;0.00;;;15.50;99.90;;;;;;5017012;28;20092;-73
2022/08/29 00:30:23;;;;;;;0.52;0.52;;;15.50;99.90;;;;;;5034853;28;20101;-73
2022/08/29 00:32:50;;;;;;;4.57;0.68;;;15.60;99.90;;;;;;5000277;28;20026;-73
2022/08/29 00:35:23;;;;;;;0.00;0.00;;;15.60;99.90;;;;;;5034433;28;20037;-73
2022/08/29 00:37:53;;;;;;;1.85;1.08;;;15.60;99.90;;;;;;5034459;28;20025;-73
2022/08/29 00:40:29;;;;;;;0.22;0.22;;;15.60;99.90;;;;;;5016444;28;20025;-72
2022/08/29 00:42:56;;;;;;;0.20;0.20;;;15.50;99.90;;;;;;5034339;28;20052;-73
2022/08/29 00:45:22;;;;;;;0.57;0.57;;;15.70;99.90;;;;;;5034145;28;20384;-72
2022/08/29 00:47:59;;;;;;;0.10;0.10;;;15.60;99.90;;;;;;5016576;28;20053;-73
2022/08/29 00:50:32;;;;;;;0.47;0.47;;;15.60;99.90;;;;;;5034238;28;20025;-73
2022/08/29 00:53:00;;;;;;;0.35;0.35;;;15.60;99.90;;;;;;5016348;28;20025;-73
2022/08/29 00:55:30;;;;;;;0.22;0.22;;;15.70;99.90;;;;;;5033936;28;20025;-73
2022/08/29 00:58:00;;;;;;;0.00;0.00;;;15.60;99.90;;;;;;5016328;28;20029;-72
2022/08/29 01:00:27;;;;;;;0.45;0.45;;;15.70;99.90;;;;;;5034044;28;20428;-73
2022/08/29 01:02:53;;;;;;;0.22;0.22;;;15.70;99.90;;;;;;5033891;28;20026;-73
2022/08/29 01:05:20;;;;;;;0.00;0.00;;;15.60;99.90;;;;;;4999723;28;20053;-73
2022/08/29 01:07:47;;;;;;;0.17;0.17;;;15.70;99.90;;;;;;5033934;28;20025;-73
2022/08/29 01:12:14;;;;;;;0.28;0.28;;;15.60;99.90;;;;;;5033799;28;20033;-73
2022/08/29 01:13:02;;;;;;;1.20;0.80;;;15.60;99.90;;;;;;5033535;28;20481;-73
2022/08/29 01:15:30;;;;;;;0.00;0.00;;;15.60;99.90;;;;;;5033515;28;20032;-73
2022/08/29 01:17:57;;;;;;;0.00;0.00;;;15.50;99.90;;;;;;5033710;28;20033;-72
2022/08/29 01:21:03;;;;;;;0.10;0.10;;;15.50;99.90;;;;;;4999569;28;20083;-73
2022/08/29 01:23:37;;;;;;;0.38;0.38;;;15.40;99.90;;;;;;5015731;28;20028;-73
2022/08/29 01:26:04;;;;;;;9.75;6.97;;;15.30;99.90;;;;;;5015914;28;20025;-73
2022/08/29 01:28:36;;;;;;;1.30;0.43;;;15.30;99.90;;;;;;5015842;28;20018;-73
2022/08/29 01:31:13;;;;;;;0.10;0.10;;;15.40;99.90;;;;;;5033511;28;20033;-72
2022/08/29 01:33:52;;;;;;;0.90;0.90;;;15.40;99.90;;;;;;5033266;28;20420;-73
2022/08/29 01:36:46;;;;;;;0.00;0.00;;;15.50;99.90;;;;;;5033280;28;20028;-73
2022/08/29 01:39:12;;;;;;;0.10;0.10;;;15.50;99.90;;;;;;5007860;28;20513;-73
2022/08/29 01:41:40;;;;;;;0.00;0.00;;;15.60;99.90;;;;;;4999079;28;20086;-71
2022/08/29 01:44:12;;;;;;;2.00;1.00;;;15.70;99.90;;;;;;5033200;28;20082;-73
2022/08/29 01:46:39;;;;;;;0.43;0.38;;;15.60;99.90;;;;;;5033032;28;20032;-73
2022/08/29 01:49:08;;;;;;;0.00;0.00;;;15.70;99.90;;;;;;5033176;28;20032;-72
2022/08/29 01:51:34;;;;;;;0.32;0.32;;;15.80;99.90;;;;;;5033012;28;20029;-73
2022/08/29 01:54:01;;;;;;;0.10;0.10;;;15.90;99.90;;;;;;5015317;28;20021;-73
2022/08/29 01:56:31;;;;;;;0.20;0.20;;;15.90;99.90;;;;;;5015315;28;20217;-73
2022/08/29 01:58:59;;;;;;;0.00;0.00;;;15.90;99.90;;;;;;5032818;28;20036;-73
2022/08/29 02:01:30;;;;;;;0.00;0.00;;;16.00;99.90;;;;;;5015055;28;20021;-73
2022/08/29 02:03:57;;;;;;;0.00;0.00;;;16.00;99.90;;;;;;5015164;28;20021;-73
2022/08/29 02:06:24;;;;;;;0.00;0.00;;;16.00;99.90;;;;;;5014976;28;20026;-72
2022/08/29 02:08:50;;;;;;;0.00;0.00;;;16.20;99.90;;;;;;5014876;28;20404;-73
2022/08/29 02:11:17;;;;;;;0.00;0.00;;;16.10;99.90;;;;;;5014843;28;20056;-73
2022/08/29 02:13:55;;;;;;;0.15;0.15;;;16.30;99.90;;;;;;5015135;28;20041;-73
2022/08/29 02:16:26;;;;;;;0.10;0.10;;;16.30;99.90;;;;;;5014754;28;20036;-72
2022/08/29 02:18:53;;;;;;;0.10;0.10;;;16.20;99.90;;;;;;5032569;28;20056;-73
2022/08/29 02:21:22;;;;;;;0.10;0.10;;;16.10;99.90;;;;;;5014825;28;20021;-73
2022/08/29 02:23:49;;;;;;;0.10;0.10;;;16.10;99.90;;;;;;5032397;28;20025;-73
2022/08/29 02:26:17;;;;;;;0.00;0.00;;;16.10;99.90;;;;;;5032448;28;20612;-73
2022/08/29 02:28:43;;;;;;;0.03;0.03;;;16.10;99.90;;;;;;5032460;28;20492;-73
2022/08/29 02:31:09;;;;;;;0.10;0.10;;;16.00;99.90;;;;;;5032220;28;20021;-73
2022/08/29 02:33:36;;;;;;;0.00;0.00;;;16.00;99.90;;;;;;5031620;28;20044;-73
2022/08/29 02:36:03;;;;;;;0.00;0.00;;;16.10;99.90;;;;;;5014348;28;20022;-73
2022/08/29 02:38:29;;;;;;;0.03;0.03;;;16.10;99.90;;;;;;5032103;28;20041;-73
2022/08/29 02:40:55;;;;;;;0.00;0.00;;;16.10;99.90;;;;;;5014659;28;20431;-73
2022/08/29 02:43:23;;;;;;;0.10;0.10;;;16.10;99.90;;;;;;5032221;28;20018;-73
2022/08/29 02:45:49;;;;;;;0.03;0.03;;;16.00;99.90;;;;;;5032344;28;20022;-73
2022/08/29 02:48:15;;;;;;;0.05;0.05;;;16.00;99.90;;;;;;5032260;28;20022;-73
2022/08/29 02:50:50;;;;;;;0.00;0.00;;;16.00;99.90;;;;;;5014339;28;20459;-73
2022/08/29 02:53:18;;;;;;;0.30;0.30;;;16.00;99.90;;;;;;5031960;28;20029;-72
2022/08/29 02:55:46;;;;;;;0.10;0.10;;;16.00;99.90;;;;;;4997822;28;20052;-73
2022/08/29 02:58:12;;;;;;;0.00;0.00;;;16.00;99.90;;;;;;5031863;28;20087;-73
2022/08/29 03:00:39;;;;;;;0.08;0.08;;;16.00;99.90;;;;;;5014189;28;20052;-74
2022/08/29 03:03:05;;;;;;;0.25;0.25;;;15.90;99.90;;;;;;5031825;28;20029;-74
2022/08/29 03:05:33;;;;;;;1.85;1.02;;;15.90;99.90;;;;;;5014170;28;20079;-74
2022/08/29 03:08:02;;;;;;;0.05;0.05;;;15.90;99.90;;;;;;5031813;28;20014;-74
2022/08/29 03:10:28;;;;;;;0.10;0.10;;;15.90;99.90;;;;;;5014047;28;20519;-74
2022/08/29 03:12:54;;;;;;;1.77;1.13;;;15.90;99.90;;;;;;5031734;28;20061;-74
2022/08/29 03:15:21;;;;;;;0.10;0.10;;;15.90;99.90;;;;;;5031609;28;20116;-74
2022/08/29 03:17:47;;;;;;;0.10;0.10;;;15.90;99.90;;;;;;5014003;28;20022;-74
2022/08/29 03:20:16;;;;;;;0.10;0.10;;;15.90;99.90;;;;;;5031721;28;20029;-74
2022/08/29 03:22:43;;;;;;;0.00;0.00;;;15.90;99.90;;;;;;5013994;28;20022;-73
2022/08/29 03:25:11;;;;;;;0.10;0.10;;;15.90;99.90;;;;;;5031575;28;20493;-74
2022/08/29 03:27:38;;;;;;;0.00;0.00;;;15.90;99.90;;;;;;5031777;28;20018;-73
2022/08/29 03:30:09;;;;;;;0.00;0.00;;;15.90;99.90;;;;;;5013944;28;20079;-74
2022/08/29 03:32:35;;;;;;;0.10;0.10;;;15.90;99.90;;;;;;4997429;28;20036;-74
2022/08/29 03:35:01;;;;;;;0.10;0.10;;;15.70;99.90;;;;;;5031434;28;20393;-74
2022/08/29 03:37:27;;;;;;;0.10;0.10;;;15.60;99.90;;;;;;5013855;28;20026;-74
2022/08/29 03:39:54;;;;;;;0.20;0.10;;;15.50;99.90;;;;;;5013713;28;20398;-74
2022/08/29 03:42:20;;;;;;;0.00;0.00;;;15.40;99.90;;;;;;5031473;28;20025;-74
2022/08/29 03:44:46;;;;;;;0.13;0.13;;;15.40;99.90;;;;;;5032517;28;20446;-74
2022/08/29 03:47:12;;;;;;;0.10;0.10;;;15.50;99.90;;;;;;5001226;28;20041;-74
2022/08/29 03:49:38;;;;;;;0.10;0.10;;;15.60;99.90;;;;;;5017739;28;20105;-74
2022/08/29 03:52:05;;;;;;;0.52;0.52;;;15.60;99.90;;;;;;5035232;28;20529;-74
2022/08/29 03:54:32;;;;;;;0.10;0.10;;;15.70;99.90;;;;;;5017605;28;20057;-73
2022/08/29 03:56:58;;;;;;;0.10;0.10;;;15.80;99.90;;;;;;5017312;28;20075;-74
2022/08/29 03:59:24;;;;;;;0.00;0.00;;;15.70;99.90;;;;;;5017508;28;20021;-74
2022/08/29 04:01:49;;;;;;;0.10;0.10;;;15.90;99.90;;;;;;5001138;28;20060;-73
2022/08/29 04:07:05;;;;;;;0.03;0.03;;;15.80;99.90;;;;;;5034877;28;20093;-74
2022/08/29 04:09:31;;;;;;;0.10;0.10;;;15.70;99.90;;;;;;5034831;28;20519;-74
2022/08/29 04:11:57;;;;;;;0.10;0.10;;;15.70;99.90;;;;;;5017256;28;20025;-74
2022/08/29 04:14:24;;;;;;;1.38;0.32;;;15.60;99.90;;;;;;5035065;28;20108;-74
2022/08/29 04:16:50;;;;;;;0.00;0.00;;;15.60;99.90;;;;;;5000807;28;20105;-74
2022/08/29 04:19:17;;;;;;;0.08;0.08;;;15.70;99.90;;;;;;5034903;28;20037;-73
2022/08/29 04:21:44;;;;;;;0.10;0.10;;;15.80;99.90;;;;;;5034628;28;20097;-74
2022/08/29 04:24:14;;;;;;;0.10;0.10;;;15.80;99.90;;;;;;5017030;28;20030;-73
2022/08/29 04:26:40;;;;;;;0.10;0.10;;;15.70;99.90;;;;;;5034851;28;20356;-74
2022/08/29 04:29:10;;;;;;;0.00;0.00;;;15.70;99.90;;;;;;5017010;28;20029;-74
2022/08/29 04:31:37;;;;;;;0.00;0.00;;;15.60;99.90;;;;;;5016929;28;20025;-74
2022/08/29 04:34:05;;;;;;;0.05;0.05;;;15.50;99.90;;;;;;5034439;28;20485;-74
2022/08/29 04:36:33;;;;;;;1.08;0.98;;;15.40;99.90;;;;;;5016729;28;20026;-74
2022/08/29 04:38:59;;;;;;;0.55;0.50;;;15.40;99.90;;;;;;5034453;28;20499;-74
2022/08/29 04:41:25;;;;;;;0.08;0.08;;;15.20;99.90;;;;;;5016779;28;20025;-74
2022/08/29 04:43:50;;;;;;;0.15;0.15;;;15.10;99.90;;;;;;5034310;28;20049;-74
2022/08/29 04:46:16;;;;;;;0.20;0.20;;;15.10;99.90;;;;;;5016337;28;20022;-74
2022/08/29 04:48:42;;;;;;;0.00;0.00;;;15.20;99.90;;;;;;5034587;28;20030;-74
2022/08/29 04:51:09;;;;;;;0.10;0.10;;;15.20;99.90;;;;;;5034239;28;20033;-74
2022/08/29 04:53:36;;;;;;;0.00;0.00;;;15.40;99.90;;;;;;5016368;28;20087;-74
2022/08/29 04:56:05;;;;;;;1.95;0.65;;;15.30;99.90;;;;;;5033239;28;20481;-74
2022/08/29 04:58:33;;;;;;;0.03;0.03;;;15.30;99.90;;;;;;5016427;28;20052;-74
2022/08/29 05:00:59;;;;;;;0.20;0.20;;;15.20;99.90;;;;;;5034275;28;20060;-74
2022/08/29 05:03:25;;;;;;;0.00;0.00;;;15.20;99.90;;;;;;5016191;28;20057;-74
2022/08/29 05:06:06;;;;;;;0.00;0.00;;;15.20;99.90;;;;;;5016095;28;20025;-74
2022/08/29 05:08:33;;;;;;;0.32;0.20;;;15.40;99.90;;;;;;5033699;28;20033;-74
2022/08/29 05:10:59;;;;;;;0.80;0.52;;;15.30;99.90;;;;;;5033881;28;20036;-73
2022/08/29 05:13:25;;;;;;;0.15;0.15;;;15.50;99.90;;;;;;5015903;28;20397;-74
2022/08/29 05:15:51;;;;;;;0.10;0.10;;;15.40;99.90;;;;;;5015834;28;20025;-74
2022/08/29 05:18:17;;;;;;;0.00;0.00;;;15.30;99.90;;;;;;5033652;28;20030;-72
2022/08/29 05:20:45;;;;;;;0.10;0.10;;;15.50;99.90;;;;;;5033560;28;20485;-71
2022/08/29 05:23:12;;;;;;;0.10;0.10;;;15.60;99.90;;;;;;5033469;28;20022;-71
2022/08/29 05:25:38;;;;;;;0.10;0.10;;;15.70;99.90;;;;;;5019829;28;20116;-74
2022/08/29 05:28:04;;;;;;;0.00;0.00;;;15.70;99.90;;;;;;5050805;28;20032;-74
2022/08/29 05:30:30;;;;;;;0.00;0.00;;;15.70;99.90;;;;;;5015843;28;20025;-74
2022/08/29 05:32:57;;;;;;;0.10;0.10;;;15.80;99.90;;;;;;5015394;28;20078;-74
2022/08/29 05:35:24;;;;;;;0.03;0.03;;;15.80;99.90;;;;;;5015387;28;20033;-74
2022/08/29 05:37:50;;;;;;;0.10;0.10;;;15.90;99.90;;;;;;5033255;28;20030;-73
2022/08/29 05:40:16;;;;;;;0.00;0.00;;;16.00;99.90;;;;;;5033407;28;20469;-74
2022/08/29 05:42:42;;;;;;;0.10;0.10;;;16.00;99.90;;;;;;5017047;28;20144;-74
2022/08/29 05:45:08;;;;;;;0.10;0.10;;;16.10;99.90;;;;;;5015019;28;20029;-74
2022/08/29 05:47:34;;;;;;;0.10;0.10;;;16.20;99.90;;;;;;5015429;28;20028;-73
2022/08/29 05:50:00;;;;;;;0.03;0.03;;;16.10;99.90;;;;;;5032988;28;20029;-74
2022/08/29 05:52:26;;;;;;;0.20;0.20;;;16.20;99.90;;;;;;5032958;28;20404;-74
2022/08/29 05:54:52;;;;;;;0.13;0.13;;;16.30;99.90;;;;;;5032862;28;20465;-74
2022/08/29 05:57:21;;;;;;;0.10;0.10;;;16.10;99.90;;;;;;5032785;28;20092;-74
2022/08/29 05:59:49;;;;;;;0.50;0.50;;;16.00;99.90;;;;;;5016964;28;20033;-74
2022/08/29 06:02:16;;;;;;;0.00;0.00;;;16.00;99.90;;;;;;5014991;28;20032;-74
2022/08/29 06:04:41;;;;;;;0.20;0.20;;;16.10;99.90;;;;;;5032833;28;20021;-74
2022/08/29 06:07:08;;;;;;;0.10;0.10;;;16.10;99.90;;;;;;5035006;28;20163;-74
2022/08/29 06:09:35;;;;;;;0.00;0.00;;;16.20;99.90;;;;;;5033121;28;20036;-73
2022/08/29 06:12:01;;;;;;;0.10;0.10;;;16.20;99.90;;;;;;5021976;28;20028;-74
2022/08/29 06:14:27;;;;;;;0.08;0.08;;;16.30;99.90;;;;;;5052595;28;20025;-74
2022/08/29 06:16:54;;;;;;;0.00;0.00;;;16.40;99.90;;;;;;5018427;28;20030;-74
2022/08/29 06:19:20;;;;;;;0.00;0.00;;;16.70;99.90;;;;;;5031879;28;20134;-74
2022/08/29 06:21:46;;;;;;;0.00;0.00;;;16.80;99.90;;;;;;5041306;28;20049;-74
2022/08/29 06:24:12;;;;;;;0.00;0.00;;;16.90;99.90;;;;;;5033985;28;20017;-74
2022/08/29 06:26:38;;;;;;;0.00;0.00;;;17.10;99.90;;;;;;5052092;28;20021;-74
2022/08/29 06:29:06;;;;;;;0.10;0.10;;;17.20;99.90;;;;;;5052197;28;20435;-74
2022/08/29 06:31:32;;;;;;;0.08;0.08;;;17.40;99.90;;;;;;5051928;28;20021;-73
2022/08/29 06:34:01;;;;;;;0.35;0.35;;;17.40;99.90;;;;;;5052355;28;20040;-74
2022/08/29 06:36:28;;;;;;;0.00;0.00;;;17.50;99.90;;;;;;5052221;28;20029;-73
2022/08/29 06:38:56;;;;;;;0.03;0.03;;;17.40;99.90;;;;;;5052101;28;20500;-74
2022/08/29 06:41:23;;;;;;;0.10;0.10;;;17.40;99.90;;;;;;5034696;28;20021;-74
2022/08/29 06:43:49;;;;;;;0.00;0.00;;;17.50;99.90;;;;;;5032093;28;20021;-74
2022/08/29 06:46:24;;;;;;;0.13;0.13;;;17.60;99.90;;;;;;5032152;28;20024;-74
2022/08/29 06:48:50;;;;;;;0.00;0.00;;;17.60;99.90;;;;;;5032012;28;20013;-74
2022/08/29 06:51:16;;;;;;;1.05;0.98;;;17.60;99.90;;;;;;5031869;28;20469;-74
2022/08/29 06:53:42;;;;;;;0.05;0.05;;;17.80;99.90;;;;;;5032050;28;20465;-74
2022/08/29 06:56:08;;;;;;;0.00;0.00;;;17.90;99.90;;;;;;5031724;28;20071;-74
2022/08/29 06:58:34;;;;;;;0.00;0.00;;;18.10;99.90;;;;;;4997961;28;20078;-74
2022/08/29 07:01:11;;;;;;;0.00;0.00;;;18.10;99.90;;;;;;5031747;28;20055;-74
2022/08/29 07:03:38;;;;;;;0.00;0.00;;;18.30;99.90;;;;;;5032011;28;20021;-74
2022/08/29 07:06:04;;;;;;;0.00;0.00;;;18.40;99.90;;;;;;5030616;28;20021;-74
2022/08/29 07:08:31;;;;;;;0.05;0.05;;;18.50;99.90;;;;;;5034270;28;20386;-74
2022/08/29 07:10:57;;;;;;;0.05;0.05;;;18.70;99.90;;;;;;5049397;28;20075;-74
2022/08/29 07:13:23;;;;;;;0.30;0.30;;;18.80;99.90;;;;;;4997375;28;20061;-72
2022/08/29 07:15:48;;;;;;;0.00;0.00;;;18.80;99.90;;;;;;5031698;28;20148;-72
2022/08/29 07:18:14;;;;;;;0.10;0.10;;;18.80;99.90;;;;;;5032035;28;20097;-72
2022/08/29 07:20:40;;;;;;;0.05;0.05;;;18.80;99.90;;;;;;5015749;28;20029;-73
2022/08/29 07:23:07;;;;;;;0.10;0.10;;;18.80;99.90;;;;;;5049745;28;20017;-72
2022/08/29 07:25:33;;;;;;;0.00;0.00;;;18.80;99.90;;;;;;5054366;28;20017;-72
2022/08/29 07:27:59;;;;;;;0.40;0.40;;;18.80;99.90;;;;;;5037895;28;20025;-72
2022/08/29 07:30:25;;;;;;;0.10;0.10;;;18.90;99.90;;;;;;5035589;28;20112;-72
2022/08/29 07:32:51;;;;;;;5.68;1.52;;;18.90;99.90;;;;;;5035031;28;20025;-72
2022/08/29 07:35:18;;;;;;;0.10;0.10;;;19.10;99.90;;;;;;5030865;28;20033;-73
2022/08/29 07:37:44;;;;;;;0.00;0.00;;;19.20;99.90;;;;;;5004786;28;20075;-72
2022/08/29 07:40:12;;;;;;;0.00;0.00;;;19.40;99.90;;;;;;5024261;28;20385;-71
2022/08/29 07:42:38;;;;;;;0.00;0.00;;;19.50;99.90;;;;;;5023761;28;20034;-73
2022/08/29 07:45:05;;;;;;;0.93;0.30;;;19.70;99.90;;;;;;5024143;28;20045;-73
2022/08/29 07:47:31;;;;;;;1.17;1.08;;;19.90;99.90;;;;;;5024169;28;20427;-73
2022/08/29 07:50:00;;;;;;;0.30;0.30;;;20.00;99.90;;;;;;5024252;28;20242;-74
2022/08/29 07:52:27;;;;;;;0.08;0.08;;;20.20;99.90;;;;;;5023670;28;20037;-73
2022/08/29 07:54:53;;;;;;;0.10;0.10;;;20.30;99.90;;;;;;5024009;28;20082;-74
2022/08/29 07:57:19;;;;;;;0.00;0.00;;;20.40;99.90;;;;;;5023553;28;20061;-74
2022/08/29 07:59:45;;;;;;;0.10;0.10;;;20.50;99.90;;;;;;5023771;28;20068;-73
2022/08/29 08:02:11;;;;;;;0.10;0.10;;;20.80;99.90;;;;;;4989778;28;20029;-73
2022/08/29 08:04:37;;;;;;;0.10;0.10;;;21.00;99.90;;;;;;5024197;28;20041;-73
2022/08/29 08:07:03;;;;;;;0.10;0.10;;;21.00;99.90;;;;;;5023549;28;20029;-74
2022/08/29 08:09:29;;;;;;;0.20;0.20;;;21.10;99.90;;;;;;5005845;28;20041;-72
2022/08/29 08:11:54;;;;;;;0.00;0.00;;;21.10;99.90;;;;;;5023282;28;20044;-74
2022/08/29 08:14:20;;;;;;;0.00;0.00;;;21.20;99.90;;;;;;5023603;28;20052;-73
2022/08/29 08:16:46;;;;;;;0.00;0.00;;;21.40;99.90;;;;;;5023860;28;20226;-74
2022/08/29 08:19:13;;;;;;;0.05;0.05;;;21.50;99.90;;;;;;5023901;28;20481;-74
2022/08/29 08:21:39;;;;;;;0.10;0.10;;;21.70;99.90;;;;;;4989541;28;20033;-74
2022/08/29 08:24:05;;;;;;;0.30;0.30;;;21.80;99.90;;;;;;5006345;28;20033;-75
2022/08/29 08:26:31;;;;;;;0.00;0.00;;;21.90;99.90;;;;;;5006097;28;20025;-72
2022/08/29 08:28:58;;;;;;;0.43;0.43;;;22.00;99.90;;;;;;5004999;28;20017;-75
2022/08/29 08:31:24;;;;;;;0.00;0.00;;;22.10;99.90;;;;;;5022445;28;20112;-74
2022/08/29 08:33:50;;;;;;;0.10;0.10;;;22.30;99.90;;;;;;5005440;28;20021;-74
2022/08/29 08:36:28;;;;;;;0.00;0.00;;;22.50;99.90;;;;;;5023485;28;20463;-73
2022/08/29 08:38:55;;;;;;;0.00;0.00;;;22.50;99.90;;;;;;5022987;28;20018;-74
2022/08/29 08:41:42;;;;;;;0.08;0.08;;;22.70;99.90;;;;;;5005488;28;20033;-74
2022/08/29 08:44:23;;;;;;;0.10;0.10;;;22.80;99.90;;;;;;5005179;28;20037;-75
2022/08/29 08:46:57;;;;;;;0.60;0.40;;;22.90;99.90;;;;;;5022879;28;20026;-73
2022/08/29 08:49:44;;;;;;;0.63;0.63;;;22.80;99.90;;;;;;5022241;28;20128;-73
2022/08/29 08:52:15;;;;;;;0.03;0.03;;;22.90;99.90;;;;;;5022877;28;20567;-74
2022/08/29 08:55:02;;;;;;;3.63;2.50;;;23.10;99.90;;;;;;5004967;28;20079;-72
2022/08/29 08:57:38;;;;;;;0.10;0.10;;;23.40;99.90;;;;;;5022087;28;20037;-73
2022/08/29 09:00:05;;;;;;;1.35;0.30;;;23.60;99.90;;;;;;5004999;28;20037;-71
2022/08/29 09:02:44;;;;;;;0.40;0.40;;;23.50;99.90;;;;;;5004386;28;20366;-74
2022/08/29 09:05:29;;;;;;;0.10;0.10;;;23.60;99.90;;;;;;5022190;28;20029;-71
2022/08/29 09:08:20;;;;;;;1.60;1.50;;;23.70;99.90;;;;;;4988034;28;20429;-73
2022/08/29 09:11:06;;;;;;;0.17;0.17;;;24.00;99.90;;;;;;5005068;28;20051;-74
2022/08/29 09:13:55;;;;;;;0.00;0.00;;;24.30;99.90;;;;;;5022389;28;20398;-73
2022/08/29 09:16:28;;;;;;;0.00;0.00;;;24.30;99.90;;;;;;5021997;28;20060;-72
2022/08/29 09:19:00;;;;;;;0.15;0.15;;;24.70;99.90;;;;;;5003992;28;20124;-74
2022/08/29 09:21:28;;;;;;;0.00;0.00;;;24.70;99.90;;;;;;5022369;28;20214;-73
2022/08/29 09:23:56;;;;;;;3.30;0.65;;;24.80;99.90;;;;;;5021740;28;20052;-76
2022/08/29 09:26:23;;;;;;;0.30;0.30;;;25.10;99.90;;;;;;4987688;28;20036;-73
2022/08/29 09:28:49;;;;;;;0.10;0.10;;;25.00;99.90;;;;;;5022009;28;20044;-74
2022/08/29 09:31:18;;;;;;;0.50;0.50;;;25.10;99.90;;;;;;5022839;28;20048;-75
2022/08/29 09:33:48;;;;;;;0.15;0.15;;;25.40;99.90;;;;;;5003687;28;20109;-75
2022/08/29 09:36:31;;;;;;;1.37;1.27;;;25.70;99.90;;;;;;4988276;28;20056;-73
2022/08/29 09:39:11;;;;;;;0.22;0.22;;;25.90;99.90;;;;;;4988128;28;20303;-73
2022/08/29 09:41:37;;;;;;;0.90;0.45;;;26.20;99.90;;;;;;5022049;28;20046;-75
2022/08/29 09:44:03;;;;;;;0.08;0.08;;;26.60;99.10;;;;;;5022017;28;20053;-75
2022/08/29 09:46:29;;;;;;;0.32;0.32;;;26.80;97.80;;;;;;5003866;28;20041;-75
2022/08/29 09:48:58;;;;;;;0.40;0.40;;;27.10;94.60;;;;;;5021715;28;20481;-73
2022/08/29 09:51:37;;;;;;;0.10;0.10;;;26.70;94.70;;;;;;5004522;28;20467;-73
2022/08/29 09:54:15;;;;;;;0.32;0.32;;;26.30;96.20;;;;;;5021533;28;20120;-72
2022/08/29 09:56:50;;;;;;;0.90;0.55;;;26.50;95.40;;;;;;5003678;28;20022;-73
2022/08/29 09:59:32;;;;;;;0.75;0.55;;;26.80;94.80;;;;;;5003762;28;20029;-74
2022/08/29 10:02:46;;;;;;;0.30;0.20;;;27.30;93.90;;;;;;5004120;28;20080;-72
2022/08/29 10:05:43;;;;;;;0.50;0.50;;;27.50;92.20;;;;;;4995127;28;20045;-74
2022/08/29 10:08:30;;;;;;;3.30;1.10;;;27.30;92.40;;;;;;4986750;28;20563;-73
2022/08/29 10:11:01;;;;;;;0.00;0.00;;;27.40;91.60;;;;;;5003303;28;20057;-73
2022/08/29 10:13:48;;;;;;;0.00;0.00;;;27.20;92.50;;;;;;4987748;28;20036;-74
2022/08/29 10:16:28;;;;;;;0.30;0.30;;;27.40;91.90;;;;;;5021056;28;20044;-74
2022/08/29 10:18:59;;;;;;;1.55;0.52;;;27.70;90.90;;;;;;5021440;28;20030;-74
2022/08/29 10:21:45;;;;;;;0.00;0.00;;;27.50;90.90;;;;;;5020438;28;20030;-75
2022/08/29 10:24:16;;;;;;;0.15;0.15;;;27.70;90.00;;;;;;5003522;28;20363;-74
2022/08/29 10:26:57;;;;;;;0.00;0.00;;;28.00;88.30;;;;;;5020772;28;20069;-74
2022/08/29 10:29:25;;;;;;;1.15;1.15;;;28.20;86.30;;;;;;5003256;28;20043;-72
2022/08/29 10:32:40;;;;;;;0.13;0.13;;;28.10;85.70;;;;;;5021164;28;20033;-73
2022/08/29 10:35:14;;;;;;;1.17;1.08;;;28.50;83.90;;;;;;5001537;28;20041;-73
2022/08/29 10:38:05;;;;;;;2.50;1.50;;;28.40;79.50;;;;;;5002873;28;20524;-73
2022/08/29 10:40:41;;;;;;;;;;;28.30;78.80;;;;;;5020682;28;20025;-75
2022/08/29 10:43:25;;;;;;;0.68;0.40;;;28.00;79.80;;;;;;5003004;28;19909;-75
2022/08/29 10:46:06;;;;;;;0.85;0.75;;;27.90;80.20;;;;;;5002464;28;20033;-73
2022/08/29 10:48:42;;;;;;;0.30;0.30;;;28.00;78.50;;;;;;5003326;28;20044;-74
2022/08/29 10:51:25;;;;;;;0.50;0.50;;;28.10;79.00;;;;;;5020486;28;20461;-73
2022/08/29 10:53:57;;;;;;;0.00;0.00;;;28.70;76.00;;;;;;5002740;28;20592;-74
2022/08/29 10:56:27;;;;;;;1.45;0.43;;;29.10;74.10;;;;;;5001197;28;20034;-74
2022/08/29 10:59:05;;;;;;;2.10;0.70;;;29.40;74.60;;;;;;5003059;28;20045;-74
2022/08/29 11:01:46;;;;;;;1.55;0.68;;;29.00;74.30;;;;;;5020177;28;20489;-74
2022/08/29 11:04:25;;;;;;;0.65;0.63;;;29.20;74.50;;;;;;4986968;28;20164;-72
2022/08/29 11:07:17;;;;;;;0.45;0.40;;;29.50;72.00;;;;;;5021275;28;20029;-74
2022/08/29 11:09:48;;;;;;;0.17;0.17;;;29.60;68.30;;;;;;4991974;28;20128;-74
2022/08/29 11:12:18;;;;;;;0.45;0.45;;;30.00;69.90;;;;;;5021789;28;20543;-75
2022/08/29 11:14:53;;;;;;;0.05;0.05;;;29.70;71.80;;;;;;5021451;28;20037;-75
2022/08/29 11:17:24;;;;;;;0.00;0.00;;;29.30;73.70;;;;;;5003143;28;20029;-74
2022/08/29 11:20:02;;;;;;;0.00;0.00;;;29.70;71.60;;;;;;4986599;28;20036;-75
2022/08/29 11:22:40;;;;;;;0.20;0.17;;;29.00;72.90;;;;;;5020300;28;20030;-71
2022/08/29 11:25:15;;;;;;;0.82;0.80;;;28.20;74.80;;;;;;5001911;28;20417;-73
2022/08/29 11:27:53;;;;;;;0.08;0.08;;;28.10;75.10;;;;;;5002622;28;20033;-74
2022/08/29 11:30:41;;;;;;;0.00;0.00;;;28.30;75.50;;;;;;5021503;28;20025;-73
2022/08/29 11:33:27;;;;;;;0.03;0.03;;;28.90;73.40;;;;;;5020440;28;20048;-74
2022/08/29 11:36:14;;;;;;;0.20;0.20;;;28.30;74.10;;;;;;5000858;28;20109;-72
2022/08/29 11:39:17;;;;;;;0.55;0.43;;;27.60;76.90;;;;;;5020672;28;20049;-72
2022/08/29 11:41:54;;;;;;;0.70;0.43;;;27.30;77.40;;;;;;5001963;28;20180;-74
2022/08/29 11:44:34;;;;;;;0.10;0.10;;;27.60;77.20;;;;;;5002607;28;20036;-72
2022/08/29 11:47:20;;;;;;;0.65;0.55;;;27.80;76.20;;;;;;5001647;28;20113;-73
2022/08/29 11:49:49;;;;;;;0.00;0.00;;;27.90;74.80;;;;;;5002441;28;20106;-73
2022/08/29 11:52:22;;;;;;;0.65;0.65;;;28.30;75.80;;;;;;5020771;28;20044;-73
2022/08/29 11:54:49;;;;;;;1.08;1.00;;;28.40;72.80;;;;;;5002629;28;20053;-73
2022/08/29 11:57:15;;;;;;;0.60;0.60;;;28.90;72.80;;;;;;4984963;28;20489;-74
2022/08/29 11:59:48;;;;;;;0.00;0.00;;;29.10;71.20;;;;;;5019346;28;20029;-73
2022/08/29 12:02:30;;;;;;;0.05;0.05;;;28.60;72.30;;;;;;5002207;28;20034;-74
2022/08/29 12:05:06;;;;;;;0.00;0.00;;;27.90;74.00;;;;;;5002252;28;20096;-74
2022/08/29 12:07:39;;;;;;;0.45;0.45;;;27.50;75.90;;;;;;5023634;28;20057;-72
2022/08/29 12:10:31;;;;;;;0.55;0.55;;;26.80;76.70;;;;;;5023100;28;20041;-74
2022/08/29 12:13:05;;;;;;;0.00;0.00;;;27.20;78.70;;;;;;5023071;28;20056;-73
2022/08/29 12:15:31;;;;;;;0.00;0.00;;;27.80;77.50;;;;;;5005641;28;20038;-73
2022/08/29 12:17:58;;;;;;;0.00;0.00;;;28.00;75.70;;;;;;5006871;28;20021;-74
2022/08/29 12:20:49;;;;;;;0.15;0.15;;;27.70;76.10;;;;;;5022852;28;20041;-73
2022/08/29 12:23:43;;;;;;;1.35;0.85;;;27.40;75.80;;;;;;5005701;28;20032;-74
2022/08/29 12:26:42;;;;;;;0.47;0.45;;;27.00;78.30;;;;;;5022697;28;20083;-73
2022/08/29 12:29:41;;;;;;;1.52;0.75;;;27.00;74.60;;;;;;5023706;28;20489;-74
2022/08/29 12:32:09;;;;;;;0.93;0.85;;;27.00;73.50;;;;;;5023212;28;20136;-73
2022/08/29 12:34:52;;;;;;;0.38;0.20;;;27.00;74.70;;;;;;5023370;28;20515;-72
2022/08/29 12:37:33;;;;;;;0.10;0.10;;;27.10;73.00;;;;;;5005268;28;20021;-72
2022/08/29 12:40:21;;;;;;;0.00;0.00;;;27.10;74.10;;;;;;5022928;28;20079;-73
2022/08/29 12:43:14;;;;;;;0.73;0.73;;;27.40;75.70;;;;;;5022478;28;20600;-73
2022/08/29 12:45:44;;;;;;;1.48;1.08;;;27.50;75.00;;;;;;5022432;28;20041;-72
2022/08/29 12:48:17;;;;;;;0.00;0.00;;;27.20;73.50;;;;;;5022773;28;20044;-73
2022/08/29 12:50:46;;;;;;;0.00;0.00;;;27.30;74.50;;;;;;5022933;28;20048;-73
2022/08/29 12:53:23;;;;;;;1.52;0.88;;;27.20;73.90;;;;;;5004138;28;20044;-73
2022/08/29 12:55:55;;;;;;;2.25;1.65;;;27.10;73.90;;;;;;5022881;28;20034;-73
2022/08/29 12:58:39;;;;;;;0.00;0.00;;;26.80;75.70;;;;;;5005053;28;20029;-73
2022/08/29 13:01:19;;;;;;;0.28;0.28;;;26.70;75.70;;;;;;5005822;28;20036;-73
2022/08/29 13:04:02;;;;;;;0.05;0.05;;;26.80;75.60;;;;;;5005205;28;20030;-73
2022/08/29 13:06:29;;;;;;;0.30;0.30;;;26.90;74.30;;;;;;5022816;28;20027;-74
2022/08/29 13:08:55;;;;;;;0.28;0.15;;;26.60;74.90;;;;;;5022669;28;20033;-73
2022/08/29 13:11:25;;;;;;;0.00;0.00;;;26.20;76.20;;;;;;5004989;28;20353;-72